createdAt,value
2022-10-23T00:04:46.479Z,20.61
2022-10-23T00:09:49.428Z,19.32
2022-10-23T00:14:52.382Z,17.64
2022-10-23T00:19:55.334Z,18.68
2022-10-23T00:24:58.284Z,19.91
2022-10-23T00:30:03.046Z,20.47
2022-10-23T00:35:06.660Z,20.56
2022-10-23T00:40:10.306Z,18.84
2022-10-23T00:45:31.238Z,17.80
2022-10-23T00:50:34.240Z,19.48
2022-10-23T00:55:38.962Z,20.34
2022-10-23T01:00:46.011Z,20.75
2022-10-23T01:06:03.249Z,20.53
2022-10-23T01:11:38.242Z,18.54
2022-10-23T01:17:15.899Z,18.24
2022-10-23T01:22:33.254Z,19.98
2022-10-23T01:27:48.490Z,20.66
2022-10-23T01:33:02.450Z,20.46
2022-10-23T01:38:21.008Z,18.51
2022-10-23T01:43:34.504Z,18.19
2022-10-23T01:48:37.992Z,19.90
2022-10-23T01:53:43.479Z,20.61
2022-10-23T01:58:49.524Z,20.94
2022-10-23T02:03:53.841Z,20.04
2022-10-23T02:08:57.094Z,18.17
2022-10-23T02:14:42.098Z,18.10
2022-10-23T02:20:03.019Z,19.83
2022-10-23T02:25:11.558Z,20.51
2022-10-23T02:30:18.352Z,20.89
2022-10-23T02:35:24.275Z,19.68
2022-10-23T02:40:44.424Z,17.96
2022-10-23T02:45:59.999Z,19.02
2022-10-23T02:51:56.072Z,20.32
2022-10-23T02:57:31.157Z,20.85
2022-10-23T03:02:44.285Z,19.44
2022-10-23T03:07:47.708Z,17.86
2022-10-23T03:12:50.982Z,19.06
2022-10-23T03:17:53.880Z,20.32
2022-10-23T03:22:56.785Z,20.82
2022-10-23T03:28:00.360Z,19.60
2022-10-23T03:33:03.243Z,17.87
2022-10-23T03:38:06.260Z,17.74
2022-10-23T03:43:09.323Z,19.51
2022-10-23T03:48:12.276Z,20.30
2022-10-23T03:53:15.175Z,20.71
2022-10-23T03:58:18.101Z,19.59
2022-10-23T04:03:21.014Z,17.80
2022-10-23T04:08:23.909Z,17.61
2022-10-23T04:13:27.099Z,19.36
2022-10-23T04:18:30.155Z,20.23
2022-10-23T04:23:33.313Z,19.60
2022-10-23T04:28:36.257Z,17.77
2022-10-23T04:33:39.166Z,17.03
2022-10-23T04:38:42.118Z,18.79
2022-10-23T04:43:45.045Z,19.87
2022-10-23T04:48:47.981Z,20.33
2022-10-23T04:53:50.871Z,18.93
2022-10-23T04:58:54.929Z,17.40
2022-10-23T05:03:57.886Z,17.39
2022-10-23T05:09:00.803Z,19.20
2022-10-23T05:14:03.718Z,20.03
2022-10-23T05:19:10.187Z,19.78
2022-10-23T05:24:13.102Z,17.91
2022-10-23T05:29:15.984Z,17.55
2022-10-23T05:34:23.118Z,19.32
2022-10-23T05:39:26.589Z,20.12
2022-10-23T05:44:29.331Z,19.01
2022-10-23T05:49:32.284Z,17.25
2022-10-23T05:54:35.266Z,17.15
2022-10-23T05:59:38.310Z,19.01
2022-10-23T06:04:41.270Z,19.89
2022-10-23T06:09:44.174Z,19.18
2022-10-23T06:14:47.466Z,17.35
2022-10-23T06:19:50.868Z,17.63
2022-10-23T06:24:54.128Z,19.32
2022-10-23T06:29:57.053Z,20.09
2022-10-23T06:34:59.955Z,19.29
2022-10-23T06:40:02.898Z,17.53
2022-10-23T06:45:07.337Z,17.44
2022-10-23T06:50:13.092Z,19.31
2022-10-23T06:55:19.294Z,20.19
2022-10-23T07:00:22.246Z,19.39
2022-10-23T07:05:25.146Z,17.65
2022-10-23T07:10:28.076Z,17.88
2022-10-23T07:15:31.303Z,19.67
2022-10-23T07:20:34.607Z,20.47
2022-10-23T07:25:38.063Z,19.70
2022-10-23T07:30:41.500Z,18.02
2022-10-23T07:35:46.260Z,17.56
2022-10-23T07:40:49.232Z,19.52
2022-10-23T07:45:53.222Z,20.65
2022-10-23T07:51:01.954Z,20.02
2022-10-23T07:56:16.732Z,18.30
2022-10-23T08:01:27.906Z,19.13
2022-10-23T08:06:31.058Z,20.65
2022-10-23T08:11:35.830Z,20.57
2022-10-23T08:16:39.510Z,18.75
2022-10-23T08:21:42.445Z,18.47
2022-10-23T08:26:45.355Z,20.27
2022-10-23T08:31:48.252Z,21.08
2022-10-23T08:36:51.452Z,19.88
2022-10-23T08:41:54.674Z,18.77
2022-10-23T08:47:18.610Z,20.33
2022-10-23T08:52:46.076Z,20.67
2022-10-23T08:58:33.001Z,18.77
2022-10-23T09:03:35.969Z,18.86
2022-10-23T09:08:52.237Z,20.56
2022-10-23T09:14:35.768Z,20.35
2022-10-23T09:19:38.953Z,18.44
2022-10-23T09:24:44.728Z,19.16
2022-10-23T09:29:55.185Z,20.83
2022-10-23T09:34:58.144Z,20.77
2022-10-23T09:40:25.367Z,19.09
2022-10-23T09:45:34.843Z,18.33
2022-10-23T09:50:38.004Z,20.22
2022-10-23T09:55:40.940Z,21.25
2022-10-23T10:00:49.254Z,20.08
2022-10-23T10:06:01.452Z,18.67
2022-10-23T10:11:37.633Z,17.83
2022-10-23T10:17:04.653Z,18.82
2022-10-23T10:22:34.359Z,20.92
2022-10-23T10:27:46.898Z,21.39
2022-10-23T10:33:02.751Z,19.85
2022-10-23T10:38:41.491Z,18.74
2022-10-23T10:43:53.351Z,19.19
2022-10-23T10:49:20.968Z,21.18
2022-10-23T10:54:46.539Z,20.92
2022-10-23T10:59:53.487Z,19.39
2022-10-23T11:05:20.726Z,18.53
2022-10-23T11:10:23.866Z,19.11
2022-10-23T11:15:41.180Z,21.05
2022-10-23T11:21:14.716Z,20.12
2022-10-23T11:27:02.132Z,18.78
2022-10-23T11:32:43.701Z,18.83
2022-10-23T11:37:58.381Z,20.45
2022-10-23T11:43:01.357Z,19.17
2022-10-23T11:48:23.798Z,18.49
2022-10-23T11:53:46.965Z,20.44
2022-10-23T11:58:56.556Z,20.95
2022-10-23T12:04:38.607Z,19.48
2022-10-23T12:09:46.466Z,18.57
2022-10-23T12:14:51.407Z,20.20
2022-10-23T12:20:19.830Z,21.56
2022-10-23T12:25:53.436Z,20.20
2022-10-23T12:31:17.806Z,18.97
2022-10-23T12:36:39.413Z,18.22
2022-10-23T12:41:42.964Z,19.09
2022-10-23T12:46:51.523Z,21.21
2022-10-23T12:52:18.433Z,21.17
2022-10-23T12:57:30.380Z,19.50
2022-10-23T13:02:34.378Z,18.57
2022-10-23T13:07:44.695Z,18.51
2022-10-23T13:13:00.764Z,20.76
2022-10-23T13:18:07.095Z,20.60
2022-10-23T13:23:36.136Z,19.20
2022-10-23T13:28:44.531Z,18.33
2022-10-23T13:34:05.401Z,19.24
2022-10-23T13:39:11.568Z,20.90
2022-10-23T13:44:18.131Z,19.59
2022-10-23T13:49:21.139Z,18.58
2022-10-23T13:59:35.860Z,20.22
2022-10-23T14:04:38.604Z,21.20
2022-10-23T14:09:41.620Z,19.77
2022-10-23T14:14:44.528Z,18.67
2022-10-23T14:19:47.609Z,19.59
2022-10-23T14:24:50.764Z,20.97
2022-10-23T14:29:53.667Z,19.63
2022-10-23T14:34:56.539Z,18.46
2022-10-23T14:39:59.840Z,17.76
2022-10-23T14:45:03.317Z,17.29
2022-10-23T14:50:07.258Z,17.21
2022-10-23T14:55:10.165Z,19.45
2022-10-23T15:00:13.799Z,20.98
2022-10-23T15:05:17.273Z,20.75
2022-10-23T15:10:20.233Z,19.27
2022-10-23T15:15:23.952Z,18.38
2022-10-23T15:20:27.325Z,17.75
2022-10-23T15:25:30.111Z,17.25
2022-10-23T15:30:33.676Z,16.81
2022-10-23T15:35:36.648Z,17.47
2022-10-23T15:40:39.870Z,19.75
2022-10-23T15:45:43.283Z,20.75
2022-10-23T15:50:46.046Z,19.57
2022-10-23T15:55:48.970Z,18.28
2022-10-23T16:00:51.894Z,17.49
2022-10-23T16:05:54.799Z,16.90
2022-10-23T16:10:59.727Z,17.29
2022-10-23T16:16:06.368Z,19.52
2022-10-23T16:21:37.794Z,19.91
2022-10-23T16:26:41.074Z,18.21
2022-10-23T16:31:43.991Z,17.22
2022-10-23T16:36:47.512Z,16.56
2022-10-23T16:41:50.460Z,16.03
2022-10-23T16:46:56.597Z,16.58
2022-10-23T16:51:59.506Z,18.92
2022-10-23T16:57:02.387Z,19.37
2022-10-23T17:02:05.492Z,17.81
2022-10-23T17:07:08.573Z,16.81
2022-10-23T17:12:11.542Z,16.16
2022-10-23T17:17:14.499Z,15.65
2022-10-23T17:22:17.468Z,16.22
2022-10-23T17:27:20.451Z,18.52
2022-10-23T17:32:23.365Z,19.60
2022-10-23T17:37:26.342Z,18.47
2022-10-23T17:42:29.695Z,17.19
2022-10-23T17:47:32.598Z,16.45
2022-10-23T17:52:36.536Z,15.90
2022-10-23T17:57:39.935Z,16.48
2022-10-23T18:02:42.687Z,18.75
2022-10-23T18:07:45.984Z,19.88
2022-10-23T18:12:49.121Z,19.78
2022-10-23T18:17:52.048Z,18.17
2022-10-23T18:22:55.055Z,17.13
2022-10-23T18:28:01.751Z,16.43
2022-10-23T18:33:05.516Z,16.77
2022-10-23T18:38:09.881Z,18.95
2022-10-23T18:43:15.170Z,19.29
2022-10-23T18:48:23.129Z,17.65
2022-10-23T18:53:26.153Z,16.62
2022-10-23T18:58:29.080Z,15.93
2022-10-23T19:03:33.517Z,15.37
2022-10-23T19:08:39.093Z,15.89
2022-10-23T19:13:43.025Z,18.17
2022-10-23T19:18:51.308Z,18.90
2022-10-23T19:23:54.243Z,17.37
2022-10-23T19:28:58.202Z,16.27
2022-10-23T19:34:01.445Z,15.56
2022-10-23T19:39:04.493Z,15.01
2022-10-23T19:44:07.636Z,15.47
2022-10-23T19:49:11.093Z,17.76
2022-10-23T19:54:14.099Z,17.99
2022-10-23T19:59:18.535Z,16.42
2022-10-23T20:04:21.416Z,15.48
2022-10-23T20:09:24.363Z,14.86
2022-10-23T20:14:27.579Z,14.37
2022-10-23T20:19:30.574Z,14.98
2022-10-23T20:24:33.667Z,17.38
2022-10-23T20:29:36.949Z,18.44
2022-10-23T20:34:40.059Z,17.16
2022-10-23T20:39:43.668Z,15.98
2022-10-23T20:44:46.587Z,15.25
2022-10-23T20:49:49.503Z,14.70
2022-10-23T20:54:52.416Z,14.23
2022-10-23T20:59:58.297Z,14.80
2022-10-23T21:05:01.178Z,17.18
2022-10-23T21:10:05.502Z,17.64
2022-10-23T21:15:09.622Z,16.10
2022-10-23T21:20:12.537Z,15.10
2022-10-23T21:25:15.559Z,14.47
2022-10-23T21:30:18.606Z,13.94
2022-10-23T21:35:22.142Z,14.45
2022-10-23T21:40:26.439Z,16.89
2022-10-23T21:45:29.647Z,17.39
2022-10-23T21:50:32.590Z,15.83
2022-10-23T21:55:35.501Z,14.81
2022-10-23T22:00:38.422Z,14.15
2022-10-23T22:05:41.325Z,13.64
2022-10-23T22:10:44.252Z,14.19
2022-10-23T22:15:47.184Z,16.59
2022-10-23T22:20:50.126Z,17.35
2022-10-23T22:25:53.162Z,15.86
2022-10-23T22:30:56.062Z,14.75
2022-10-23T22:36:03.596Z,14.06
2022-10-23T22:41:07.487Z,13.53
2022-10-23T22:46:14.001Z,13.09
2022-10-23T22:51:19.909Z,13.77
2022-10-23T22:56:27.150Z,16.18
2022-10-23T23:01:39.466Z,17.26
2022-10-23T23:06:42.499Z,15.93
2022-10-23T23:11:52.052Z,14.77
2022-10-23T23:16:55.359Z,14.04
2022-10-23T23:21:59.356Z,13.51
2022-10-23T23:27:02.366Z,13.05
2022-10-23T23:32:06.322Z,13.59
2022-10-23T23:37:09.238Z,15.96
2022-10-23T23:42:12.129Z,17.06
2022-10-23T23:47:15.068Z,15.77
2022-10-23T23:52:18.052Z,14.48
2022-10-23T23:57:20.980Z,13.65
